Time;durP1;ratioP1;P1;durP2;ratioP2;P2;SDS_P1;SDS_P2;PMS_P1;PMS_P2;Temp;Humidity;BMP_temperature;BMP_pressure;BME280_temperature;BME280_humidity;BME280_pressure;Samples;Min_cycle;Max_cycle;Signal;HPM_P1;HPM_P2
2021/03/20 00:00:43;;;;;;;10.17;5.43;;;;;;;-0.62;89.74;99463.03;4910494;28;103835;-73
2021/03/20 00:03:10;;;;;;;10.10;6.73;;;;;;;-0.65;89.72;99459.66;4911662;28;103655;-72
2021/03/20 00:05:38;;;;;;;9.30;6.20;;;;;;;-0.64;89.95;99459.63;4908669;28;102974;-74
2021/03/20 00:08:07;;;;;;;9.83;6.50;;;;;;;-0.62;90.41;99457.84;4898296;28;104313;-74
2021/03/20 00:10:35;;;;;;;9.63;6.90;;;;;;;-0.72;90.24;99465.81;4905659;28;103466;-72
2021/03/20 00:13:04;;;;;;;8.37;5.90;;;;;;;-0.72;90.75;99466.69;4911247;28;103651;-72
2021/03/20 00:15:32;;;;;;;9.33;6.43;;;;;;;-0.85;91.01;99459.09;4910290;28;102696;-74
2021/03/20 00:18:00;;;;;;;9.90;6.60;;;;;;;-0.82;91.47;99470.31;4902959;28;102885;-73
2021/03/20 00:20:29;;;;;;;9.77;6.70;;;;;;;-0.81;91.14;99461.63;4909898;28;106528;-74
2021/03/20 00:22:58;;;;;;;10.90;6.60;;;;;;;-0.86;90.88;99468.63;4910964;28;103726;-72
2021/03/20 00:25:25;;;;;;;8.70;6.63;;;;;;;-0.76;91.46;99464.16;4902495;28;102532;-73
2021/03/20 00:27:53;;;;;;;7.93;6.23;;;;;;;-0.77;91.48;99462.44;4911711;28;103023;-73
2021/03/20 00:30:21;;;;;;;9.97;6.83;;;;;;;-0.72;92.03;99466.69;4910737;28;103818;-73
2021/03/20 00:32:49;;;;;;;7.73;5.83;;;;;;;-0.61;91.57;99461.31;4910538;28;104304;-77
2021/03/20 00:35:19;;;;;;;11.23;7.33;;;;;;;-0.66;91.83;99458.81;4911048;28;102969;-74
2021/03/20 00:37:48;;;;;;;9.40;7.13;;;;;;;-0.68;92.23;99457.97;4914702;28;102907;-73
2021/03/20 00:40:19;;;;;;;9.67;7.23;;;;;;;-0.66;92.80;99461.41;4910182;28;103805;-72
2021/03/20 00:42:46;;;;;;;10.33;7.17;;;;;;;-0.82;92.77;99465.09;4910977;28;105506;-72
2021/03/20 00:45:15;;;;;;;11.60;7.40;;;;;;;-0.65;93.54;99460.53;4910949;28;102822;-72
2021/03/20 00:47:43;;;;;;;8.27;6.27;;;;;;;-0.53;92.43;99456.03;4873597;28;107615;-72
2021/03/20 00:50:14;;;;;;;8.63;6.27;;;;;;;-0.45;92.55;99465.38;4869126;28;104125;-73
2021/03/20 00:52:41;;;;;;;9.93;6.33;;;;;;;-0.40;92.29;99462.72;4853458;28;103996;-73
2021/03/20 00:55:10;;;;;;;8.90;6.13;;;;;;;-0.35;91.89;99463.50;4872422;28;103091;-74
2021/03/20 00:57:38;;;;;;;7.97;6.47;;;;;;;-0.34;91.46;99473.00;4872471;28;102967;-73
2021/03/20 01:00:09;;;;;;;10.37;6.67;;;;;;;-0.29;91.76;99472.06;4871936;28;104092;-73
2021/03/20 01:02:37;;;;;;;13.10;7.77;;;;;;;-0.54;91.65;99470.72;4872506;28;103822;-73
2021/03/20 01:05:06;;;;;;;8.30;6.23;;;;;;;-0.48;92.96;99472.38;4872355;28;102683;-73
2021/03/20 01:07:35;;;;;;;8.77;6.83;;;;;;;-0.37;92.85;99468.72;4872893;28;103360;-73
2021/03/20 01:10:04;;;;;;;10.53;7.43;;;;;;;-0.38;92.42;99471.34;4872144;28;103480;-73
2021/03/20 01:12:31;;;;;;;8.10;6.00;;;;;;;-0.30;92.67;99469.47;4875104;28;103410;-73
2021/03/20 01:14:58;;;;;;;10.33;7.50;;;;;;;-0.47;91.27;99468.88;4871324;28;103014;-73
2021/03/20 01:17:25;;;;;;;10.13;7.47;;;;;;;-0.57;92.25;99473.38;4854653;28;103291;-72
2021/03/20 01:19:53;;;;;;;7.20;5.70;;;;;;;-0.44;92.54;99468.84;4857152;28;103748;-72
2021/03/20 01:22:19;;;;;;;11.20;8.70;;;;;;;-0.47;91.99;99463.69;4871624;28;103846;-73
2021/03/20 01:24:47;;;;;;;13.33;8.33;;;;;;;-0.58;92.64;99466.47;4855288;28;103312;-72
2021/03/20 01:27:15;;;;;;;10.60;7.17;;;;;;;-0.62;92.97;99470.00;4869205;28;102821;-73
2021/03/20 01:29:42;;;;;;;11.00;7.57;;;;;;;-0.46;93.71;99473.19;4854727;28;104953;-73
2021/03/20 01:32:09;;;;;;;11.83;7.83;;;;;;;-0.53;93.63;99469.84;4872702;28;103793;-73
2021/03/20 01:34:37;;;;;;;9.83;6.83;;;;;;;-0.40;94.06;99475.69;4881245;28;102665;-75
2021/03/20 01:37:04;;;;;;;9.50;6.40;;;;;;;-0.41;93.17;99466.19;4869411;28;103056;-73
2021/03/20 01:39:48;;;;;;;10.93;6.77;;;;;;;-0.31;92.68;99475.56;4859038;28;103506;-72
2021/03/20 01:42:15;;;;;;;9.27;6.57;;;;;;;-0.32;92.74;99472.09;4871766;28;104104;-72
2021/03/20 01:44:43;;;;;;;8.20;5.83;;;;;;;-0.25;92.44;99478.03;4874038;28;102573;-73
2021/03/20 01:47:14;;;;;;;9.17;6.70;;;;;;;-0.17;92.28;99476.19;4885550;28;102608;-74
2021/03/20 01:49:44;;;;;;;8.33;6.53;;;;;;;-0.16;92.37;99473.56;4890077;28;105212;-72
2021/03/20 01:52:20;;;;;;;9.00;5.67;;;;;;;-0.11;92.33;99481.25;4871875;28;103830;-72
2021/03/20 01:54:52;;;;;;;8.87;6.90;;;;;;;-0.05;92.18;99486.34;4872563;28;103248;-73
2021/03/20 01:57:24;;;;;;;8.30;5.97;;;;;;;0.02;91.79;99477.56;4866563;28;103122;-73
2021/03/20 01:59:53;;;;;;;8.70;5.63;;;;;;;-0.06;90.71;99476.84;4875586;28;104061;-74
2021/03/20 02:02:20;;;;;;;8.83;7.10;;;;;;;-0.03;90.15;99474.22;4869488;28;103763;-72
2021/03/20 02:04:47;;;;;;;10.23;6.83;;;;;;;-0.02;89.47;99475.91;4871042;28;103821;-74
2021/03/20 02:07:15;;;;;;;7.23;5.93;;;;;;;-0.03;89.81;99472.44;4875561;28;102735;-73
2021/03/20 02:09:42;;;;;;;9.43;6.73;;;;;;;-0.02;89.45;99471.56;4870731;28;108404;-73
2021/03/20 02:12:19;;;;;;;8.23;6.17;;;;;;;-0.07;89.62;99475.13;4876839;28;103848;-72
2021/03/20 02:14:53;;;;;;;8.33;5.77;;;;;;;-0.06;88.69;99476.84;4890171;28;102528;-72
2021/03/20 02:17:36;;;;;;;8.20;6.27;;;;;;;-0.05;88.45;99481.16;4888979;28;103089;-72
2021/03/20 02:20:42;;;;;;;8.47;6.20;;;;;;;-0.10;88.34;99477.78;4890007;28;103979;-72
2021/03/20 02:24:02;;;;;;;7.50;5.90;;;;;;;-0.09;89.07;99480.38;4880082;28;103114;-73
2021/03/20 02:26:51;;;;;;;8.47;5.87;;;;;;;0.04;89.41;99480.13;4868708;28;102877;-72
2021/03/20 02:29:54;;;;;;;8.90;6.83;;;;;;;-0.06;90.06;99484.66;4874281;28;104041;-72
2021/03/20 02:32:39;;;;;;;7.47;5.77;;;;;;;-0.13;90.54;99470.03;4887843;28;103988;-72
2021/03/20 02:35:15;;;;;;;7.93;6.10;;;;;;;-0.12;90.99;99474.34;4870394;28;105226;-72
2021/03/20 02:37:51;;;;;;;6.57;5.23;;;;;;;-0.10;91.51;99472.59;4869654;28;102874;-72
2021/03/20 02:40:39;;;;;;;8.13;5.73;;;;;;;-0.13;91.42;99473.50;4863072;28;102566;-73
2021/03/20 02:43:16;;;;;;;7.57;6.30;;;;;;;-0.15;91.38;99469.22;4874031;28;104400;-73
2021/03/20 02:45:46;;;;;;;7.10;5.90;;;;;;;-0.17;91.91;99468.41;4887236;28;103682;-73
2021/03/20 02:48:24;;;;;;;7.30;5.70;;;;;;;-0.13;91.92;99467.44;4871304;28;103000;-72
2021/03/20 02:50:59;;;;;;;7.10;5.27;;;;;;;-0.04;91.01;99473.34;4868957;28;103098;-73
2021/03/20 02:53:31;;;;;;;6.77;5.60;;;;;;;-0.02;90.99;99455.13;4870562;28;105206;-74
2021/03/20 02:56:01;;;;;;;6.80;5.30;;;;;;;0.05;90.72;99464.53;4877243;28;103732;-74
2021/03/20 02:58:32;;;;;;;6.77;5.60;;;;;;;-0.05;90.94;99470.75;4869204;28;103310;-72
2021/03/20 03:01:03;;;;;;;7.13;5.63;;;;;;;-0.05;91.34;99466.41;4870531;28;102811;-73
2021/03/20 03:03:37;;;;;;;7.50;5.43;;;;;;;-0.04;91.05;99467.28;4870331;28;105937;-72
2021/03/20 03:06:09;;;;;;;7.17;5.37;;;;;;;-0.08;91.55;99471.66;4870233;28;104973;-72
2021/03/20 03:08:40;;;;;;;7.93;5.47;;;;;;;0.03;91.07;99463.69;4870908;28;103010;-73
2021/03/20 03:11:12;;;;;;;8.07;5.90;;;;;;;0.02;90.52;99474.13;4850753;28;102611;-73
2021/03/20 03:13:44;;;;;;;7.43;5.43;;;;;;;0.06;91.36;99474.03;4870911;28;105000;-72
2021/03/20 03:16:18;;;;;;;9.00;5.93;;;;;;;-0.03;91.46;99458.63;4874046;28;103705;-74
2021/03/20 03:18:49;;;;;;;8.50;6.07;;;;;;;0.00;91.15;99459.41;4873100;28;103039;-73
2021/03/20 03:21:19;;;;;;;7.90;5.73;;;;;;;-0.04;91.53;99457.75;4867483;28;102707;-73
2021/03/20 03:23:46;;;;;;;6.63;5.60;;;;;;;0.06;91.71;99468.00;4867701;28;104125;-73
2021/03/20 03:26:17;;;;;;;10.33;6.30;;;;;;;-0.12;93.01;99466.56;4886959;28;104810;-72
2021/03/20 03:28:48;;;;;;;7.43;5.80;;;;;;;-0.09;92.00;99464.78;4873959;28;102964;-73
2021/03/20 03:31:22;;;;;;;6.07;5.10;;;;;;;0.11;92.35;99477.41;4872872;28;102585;-72
2021/03/20 03:33:56;;;;;;;8.67;6.17;;;;;;;-0.07;91.91;99482.94;4873071;28;103924;-73
2021/03/20 03:36:24;;;;;;;8.60;5.77;;;;;;;0.04;92.38;99486.19;4878376;28;103840;-72
2021/03/20 03:38:56;;;;;;;8.47;5.47;;;;;;;-0.01;92.01;99494.06;4881193;28;102963;-72
2021/03/20 03:41:26;;;;;;;6.00;5.37;;;;;;;-0.05;92.77;99497.59;4880537;28;103199;-72
2021/03/20 03:43:54;;;;;;;6.50;5.80;;;;;;;0.06;91.93;99494.81;4872338;28;105107;-73
2021/03/20 03:46:25;;;;;;;8.40;6.67;;;;;;;0.18;91.64;99499.78;4883883;28;103610;-72
2021/03/20 03:48:55;;;;;;;6.73;5.90;;;;;;;0.06;91.29;99499.16;4910469;28;102901;-72
2021/03/20 03:51:23;;;;;;;9.43;6.13;;;;;;;-0.05;91.62;99507.13;4910944;28;103317;-72
2021/03/20 03:53:50;;;;;;;6.73;5.57;;;;;;;-0.06;91.79;99505.44;4893711;28;105119;-72
2021/03/20 03:56:35;;;;;;;7.27;5.93;;;;;;;-0.04;92.00;99506.25;4910481;28;103961;-74
2021/03/20 03:59:14;;;;;;;8.53;5.63;;;;;;;-0.04;91.58;99516.66;4906892;28;103050;-74
2021/03/20 04:01:50;;;;;;;7.13;5.87;;;;;;;-0.09;92.08;99502.88;4892061;28;102589;-72
2021/03/20 04:04:32;;;;;;;6.87;5.63;;;;;;;-0.11;91.83;99502.03;4903346;28;103545;-74
2021/03/20 04:07:19;;;;;;;6.90;5.63;;;;;;;-0.08;91.98;99507.19;4910090;28;103665;-73
2021/03/20 04:09:55;;;;;;;7.30;5.90;;;;;;;-0.14;92.59;99502.94;4905582;28;102565;-74
2021/03/20 04:12:31;;;;;;;6.50;5.77;;;;;;;-0.17;92.55;99507.34;4900758;28;103085;-73
2021/03/20 04:15:05;;;;;;;8.30;5.33;;;;;;;-0.21;92.21;99516.94;4929051;28;103859;-74
2021/03/20 04:17:39;;;;;;;8.33;5.90;;;;;;;-0.27;92.75;99500.56;4928460;28;104514;-73
2021/03/20 04:20:15;;;;;;;7.63;6.20;;;;;;;-0.20;92.28;99497.88;4911224;28;102600;-73
2021/03/20 04:22:49;;;;;;;7.03;5.47;;;;;;;-0.16;92.08;99503.84;4911486;28;102797;-72
2021/03/20 04:25:26;;;;;;;7.67;6.07;;;;;;;-0.32;92.00;99499.81;4910215;28;105495;-72
2021/03/20 04:28:06;;;;;;;7.10;5.87;;;;;;;-0.28;92.00;99504.91;4910601;28;103768;-72
2021/03/20 04:30:37;;;;;;;6.43;5.77;;;;;;;-0.15;92.21;99495.19;4910960;28;103125;-73
2021/03/20 04:33:10;;;;;;;7.23;5.53;;;;;;;-0.46;92.37;99509.53;4911318;28;102788;-73
2021/03/20 04:35:42;;;;;;;7.27;6.03;;;;;;;-0.61;93.54;99501.09;4893368;28;104025;-73
2021/03/20 04:38:11;;;;;;;7.57;6.73;;;;;;;-0.58;93.95;99523.56;4926075;28;103731;-74
2021/03/20 04:40:41;;;;;;;7.43;6.20;;;;;;;-0.55;94.25;99533.03;4891882;28;102643;-73
2021/03/20 04:43:11;;;;;;;9.27;6.30;;;;;;;-0.57;94.33;99537.41;4910027;28;102755;-73
2021/03/20 04:45:40;;;;;;;8.03;6.00;;;;;;;-0.46;93.73;99530.31;4909436;28;104073;-73
2021/03/20 04:48:16;;;;;;;7.97;5.67;;;;;;;-0.59;94.66;99524.47;4910112;28;104772;-74
2021/03/20 04:50:47;;;;;;;7.37;6.10;;;;;;;-0.49;94.16;99530.34;4910315;28;102910;-75
2021/03/20 04:53:16;;;;;;;7.50;5.50;;;;;;;-0.52;94.06;99533.88;4910551;28;102951;-73
2021/03/20 04:55:43;;;;;;;7.57;5.77;;;;;;;-0.45;94.52;99537.22;4909541;28;104075;-73
2021/03/20 04:58:17;;;;;;;8.33;6.50;;;;;;;-0.49;93.77;99531.22;4910283;28;103758;-73
2021/03/20 05:00:46;;;;;;;8.23;6.40;;;;;;;-0.43;93.14;99535.47;4910598;28;102610;-73
2021/03/20 05:03:21;;;;;;;9.03;6.00;;;;;;;-0.43;93.20;99535.47;4910151;28;102917;-74
2021/03/20 05:05:53;;;;;;;7.37;5.50;;;;;;;-0.50;93.02;99528.63;4903716;28;104025;-73
2021/03/20 05:08:26;;;;;;;7.70;5.80;;;;;;;-0.33;93.16;99527.50;4910069;28;103729;-73
2021/03/20 05:10:57;;;;;;;6.20;5.30;;;;;;;-0.28;92.69;99530.06;4910041;28;102613;-74
2021/03/20 05:13:34;;;;;;;9.80;6.47;;;;;;;-0.31;92.20;99535.28;4923898;28;103238;-73
2021/03/20 05:16:26;;;;;;;7.43;5.97;;;;;;;-0.47;92.12;99533.78;4892749;28;105030;-73
2021/03/20 05:18:56;;;;;;;7.93;5.87;;;;;;;-0.53;93.68;99533.91;4891568;28;104213;-78
2021/03/20 05:21:26;;;;;;;6.70;5.50;;;;;;;-0.74;93.25;99527.28;4896505;28;102571;-76
2021/03/20 05:23:54;;;;;;;6.97;6.27;;;;;;;-0.75;94.25;99534.19;4894236;28;102390;-77
2021/03/20 05:35:32;;;;;;;8.70;7.07;;;;;;;-0.88;95.26;99545.63;4892203;28;102456;-76
2021/03/20 05:48:04;;;;;;;7.40;5.83;;;;;;;-0.79;94.14;99544.66;4850937;29;103849;-75
2021/03/20 05:50:55;;;;;;;7.00;5.47;;;;;;;-0.88;94.11;99558.59;4848073;28;103321;-76
2021/03/20 05:53:34;;;;;;;7.10;6.07;;;;;;;-0.70;93.17;99536.72;4844847;29;104219;-78
2021/03/20 05:59:28;;;;;;;7.50;6.03;;;;;;;-0.72;93.05;99557.50;4820186;29;105965;-76
2021/03/20 06:02:14;;;;;;;7.17;5.73;;;;;;;-0.74;92.52;99566.19;4831411;29;102988;-77
2021/03/20 06:04:45;;;;;;;8.90;7.63;;;;;;;-0.69;92.21;99564.38;4853296;29;102568;-77
2021/03/20 06:07:53;;;;;;;6.40;5.67;;;;;;;-0.71;92.31;99566.16;4853554;28;104181;-77
2021/03/20 06:10:34;;;;;;;7.70;6.03;;;;;;;-0.65;91.90;99571.28;4860201;28;104168;-77
2021/03/20 06:13:44;;;;;;;7.13;5.90;;;;;;;-0.56;92.04;99568.53;4906844;28;102544;-76
2021/03/20 06:16:30;;;;;;;6.93;5.97;;;;;;;-0.66;91.76;99578.19;4911875;28;102488;-75
2021/03/20 06:19:31;;;;;;;7.27;5.60;;;;;;;-0.65;91.08;99581.66;4911174;28;103443;-75
2021/03/20 06:22:24;;;;;;;6.10;5.47;;;;;;;-0.64;90.80;99581.63;4926289;28;103775;-76
2021/03/20 06:25:11;;;;;;;5.60;4.97;;;;;;;-0.49;89.92;99587.47;4910465;28;102564;-74
2021/03/20 06:27:57;;;;;;;6.00;5.10;;;;;;;-0.55;89.45;99592.75;4910784;28;104732;-71
2021/03/20 06:30:37;;;;;;;6.00;4.57;;;;;;;-0.53;88.56;99598.81;4909924;28;103960;-72
2021/03/20 06:33:14;;;;;;;6.60;5.40;;;;;;;-0.37;89.53;99592.50;4906156;28;103260;-72
2021/03/20 06:35:45;;;;;;;6.10;5.13;;;;;;;-0.32;88.35;99595.88;4898720;28;103626;-76
2021/03/20 06:38:25;;;;;;;6.50;4.80;;;;;;;-0.32;89.15;99608.88;4903116;28;103136;-73
2021/03/20 06:41:02;;;;;;;5.40;4.63;;;;;;;-0.43;88.33;99623.75;4902598;28;103380;-73
2021/03/20 06:43:53;;;;;;;5.07;4.53;;;;;;;-0.45;87.99;99620.31;4905809;28;112225;-72
2021/03/20 06:46:26;;;;;;;5.37;4.87;;;;;;;-0.45;87.01;99625.50;4906892;28;102698;-73
2021/03/20 06:48:56;;;;;;;5.10;4.30;;;;;;;-0.34;86.45;99629.69;4907791;28;102824;-73
2021/03/20 06:51:24;;;;;;;5.17;3.90;;;;;;;-0.41;84.52;99628.03;4906615;28;105328;-73
2021/03/20 06:53:57;;;;;;;4.40;3.67;;;;;;;-0.44;84.97;99622.88;4906705;28;103323;-73
2021/03/20 06:56:27;;;;;;;4.87;4.23;;;;;;;-0.31;85.45;99628.78;4907367;28;103828;-73
2021/03/20 06:58:54;;;;;;;5.03;4.23;;;;;;;-0.21;84.98;99630.34;4907370;28;102977;-73
2021/03/20 07:01:31;;;;;;;4.00;3.30;;;;;;;-0.33;82.24;99633.97;4907472;28;104012;-73
2021/03/20 07:04:33;;;;;;;4.27;3.43;;;;;;;-0.11;83.18;99637.97;4914529;28;104638;-80
2021/03/20 07:07:21;;;;;;;5.27;3.83;;;;;;;-0.01;82.78;99647.38;4911579;28;103500;-78
2021/03/20 07:09:52;;;;;;;5.07;3.80;;;;;;;0.36;82.22;99634.66;4909704;28;102512;-77
2021/03/20 07:13:22;;;;;;;5.23;3.37;;;;;;;-0.07;79.54;99628.41;4895354;28;103042;-76
2021/03/20 07:24:31;;;;;;;3.50;3.20;;;;;;;-0.18;76.39;99640.69;4831727;29;102964;-75
2021/03/20 07:27:02;;;;;;;3.43;3.13;;;;;;;0.25;76.74;99646.97;4830819;29;103976;-74
2021/03/20 07:29:44;;;;;;;3.57;3.27;;;;;;;-0.10;75.82;99644.03;4831465;29;105762;-75
2021/03/20 07:35:50;;;;;;;4.13;3.33;;;;;;;1.03;75.01;99656.84;4850143;29;103148;-75
2021/03/20 07:38:28;;;;;;;3.27;2.90;;;;;;;0.09;74.02;99657.59;4859955;28;103282;-75
2021/03/20 07:45:10;;;;;;;4.00;3.10;;;;;;;0.27;74.48;99654.72;4885780;28;103078;-76
2021/03/20 07:48:28;;;;;;;5.27;3.53;;;;;;;0.38;74.04;99664.06;4894137;28;104609;-75
2021/03/20 07:51:10;;;;;;;3.83;3.43;;;;;;;0.71;72.56;99661.78;4897959;28;106606;-75
2021/03/20 07:54:45;;;;;;;2.73;2.50;;;;;;;0.08;71.65;99658.50;4892611;28;103929;-76
2021/03/20 07:57:33;;;;;;;5.27;3.13;;;;;;;0.93;73.44;99665.69;4901634;28;103641;-75
2021/03/20 08:11:44;;;;;;;5.23;3.37;;;;;;;0.71;69.03;99708.59;4873057;28;102625;-75
2021/03/20 08:14:17;;;;;;;4.53;2.90;;;;;;;0.79;69.76;99704.97;4865177;28;102770;-76
2021/03/20 08:17:22;;;;;;;3.10;2.60;;;;;;;2.67;65.81;99699.25;4844687;29;105616;-76
2021/03/20 08:20:18;;;;;;;2.87;2.67;;;;;;;2.93;67.04;99698.59;4860186;28;103823;-76
2021/03/20 08:27:21;;;;;;;2.90;2.30;;;;;;;3.04;61.44;99662.63;4866664;28;104656;-80
2021/03/20 08:30:02;;;;;;;3.57;2.40;;;;;;;3.04;59.46;99682.63;4866889;28;104394;-78
2021/03/20 08:32:48;;;;;;;3.83;2.57;;;;;;;2.09;58.18;99698.91;4863199;28;111205;-80
2021/03/20 08:35:22;;;;;;;2.43;2.00;;;;;;;3.68;57.55;99693.03;4861417;28;103104;-80
2021/03/20 08:38:21;;;;;;;4.80;2.50;;;;;;;2.62;60.04;99701.13;4860094;28;105192;-79
2021/03/20 08:40:58;;;;;;;5.63;2.50;;;;;;;2.83;58.77;99703.22;4867125;28;104480;-79
2021/03/20 08:44:07;;;;;;;4.43;2.40;;;;;;;3.00;57.74;99713.22;4864053;28;105138;-78
2021/03/20 08:46:57;;;;;;;4.50;2.80;;;;;;;4.06;59.63;99704.97;4856834;28;103380;-84
2021/03/20 08:49:37;;;;;;;2.90;2.40;;;;;;;3.65;54.95;99728.88;4859367;28;104417;-85
2021/03/20 08:52:15;;;;;;;4.17;2.10;;;;;;;3.27;53.60;99727.28;4868307;28;103428;-87
2021/03/20 08:55:05;;;;;;;3.53;2.03;;;;;;;3.91;53.27;99721.97;4866163;28;104313;-84
2021/03/20 08:57:40;;;;;;;2.40;2.20;;;;;;;4.22;51.75;99721.03;4863716;28;103865;-78
2021/03/20 09:00:14;;;;;;;2.60;2.23;;;;;;;2.58;55.14;99725.59;4864294;28;104209;-78
2021/03/20 09:02:44;;;;;;;2.63;2.17;;;;;;;3.17;52.20;99720.59;4865300;28;108821;-77
2021/03/20 09:05:22;;;;;;;3.10;2.30;;;;;;;4.36;55.25;99708.41;4864093;28;104040;-77
2021/03/20 09:07:54;;;;;;;3.13;2.80;;;;;;;3.51;53.58;99719.63;4866741;28;104488;-76
2021/03/20 09:10:27;;;;;;;3.00;2.70;;;;;;;3.42;53.78;99719.06;4867540;28;103885;-76
2021/03/20 09:13:06;;;;;;;3.10;2.10;;;;;;;4.71;52.72;99716.00;4868604;28;104156;-76
2021/03/20 09:15:47;;;;;;;2.30;2.10;;;;;;;5.41;51.65;99714.44;4868573;28;104809;-75
2021/03/20 09:18:17;;;;;;;2.17;2.00;;;;;;;6.09;48.46;99708.47;4866724;28;103491;-76
2021/03/20 09:20:48;;;;;;;2.40;2.07;;;;;;;6.38;47.43;99710.78;4867334;28;103459;-77
2021/03/20 09:23:27;;;;;;;2.83;1.90;;;;;;;6.41;46.29;99722.03;4866196;28;105315;-78
2021/03/20 09:25:58;;;;;;;2.60;2.13;;;;;;;5.31;48.41;99727.91;4866989;28;104004;-74
2021/03/20 09:28:29;;;;;;;2.40;2.20;;;;;;;4.44;49.36;99716.84;4866246;28;103450;-77
2021/03/20 09:31:21;;;;;;;2.23;2.00;;;;;;;4.40;50.99;99725.72;4868194;28;103394;-75
2021/03/20 09:33:49;;;;;;;2.77;2.23;;;;;;;4.58;47.76;99725.13;4868769;28;103368;-75
2021/03/20 09:36:42;;;;;;;3.47;2.50;;;;;;;4.93;48.99;99726.59;4869929;28;105431;-75
2021/03/20 09:39:12;;;;;;;3.23;2.33;;;;;;;4.99;47.84;99716.78;4867034;28;102611;-72
2021/03/20 09:41:39;;;;;;;2.53;1.90;;;;;;;3.94;47.46;99726.25;4874424;28;103343;-73
2021/03/20 09:44:25;;;;;;;3.00;2.23;;;;;;;3.27;49.27;99720.31;4868877;28;104970;-77
2021/03/20 09:46:56;;;;;;;2.13;1.93;;;;;;;5.28;49.83;99712.31;4867664;28;103855;-74
2021/03/20 09:49:58;;;;;;;2.50;1.90;;;;;;;6.30;48.51;99703.22;4870810;28;104700;-76
2021/03/20 09:52:54;;;;;;;2.47;1.50;;;;;;;6.52;47.06;99702.38;4866518;28;104062;-74
2021/03/20 09:55:48;;;;;;;3.80;2.20;;;;;;;5.31;45.65;99707.81;4864066;28;104391;-75
2021/03/20 09:58:37;;;;;;;3.73;2.20;;;;;;;4.33;49.13;99706.72;4866614;28;104246;-74
2021/03/20 10:01:18;;;;;;;2.53;2.33;;;;;;;4.44;47.18;99709.88;4871481;28;103292;-76
2021/03/20 10:04:24;;;;;;;3.37;2.10;;;;;;;3.41;50.23;99709.50;4873738;28;103080;-75
2021/03/20 10:07:16;;;;;;;1.90;1.80;;;;;;;4.02;48.74;99706.81;4863796;28;104330;-74
2021/03/20 10:09:54;;;;;;;3.53;2.13;;;;;;;4.49;48.43;99707.13;4888617;28;105119;-79
2021/03/20 10:12:24;;;;;;;4.00;2.37;;;;;;;4.44;49.77;99706.38;4875393;28;103213;-74
2021/03/20 10:15:14;;;;;;;2.97;2.23;;;;;;;5.19;46.89;99700.38;4867500;28;103483;-76
2021/03/20 10:18:24;;;;;;;3.83;2.10;;;;;;;5.33;46.62;99695.53;4866557;28;103388;-74
2021/03/20 10:21:03;;;;;;;2.73;2.00;;;;;;;4.92;45.82;99694.31;4809045;29;103174;-74
2021/03/20 10:23:39;;;;;;;2.27;1.70;;;;;;;5.42;48.42;99694.34;4858980;28;104751;-74
2021/03/20 10:26:17;;;;;;;2.77;2.27;;;;;;;4.61;44.29;99688.38;4867396;28;104835;-76
2021/03/20 10:28:47;;;;;;;2.27;2.07;;;;;;;3.93;45.89;99686.16;4868410;28;105139;-78
2021/03/20 10:31:17;;;;;;;2.30;1.80;;;;;;;3.49;47.06;99692.69;4866233;28;104600;-75
2021/03/20 10:33:46;;;;;;;2.83;2.03;;;;;;;3.52;47.90;99707.44;4863230;28;103775;-73
2021/03/20 10:36:27;;;;;;;3.47;2.10;;;;;;;3.56;49.37;99706.47;4863950;28;105222;-77
2021/03/20 10:39:23;;;;;;;4.87;2.47;;;;;;;3.15;49.30;99718.00;4883557;28;106931;-74
2021/03/20 10:41:51;;;;;;;2.27;2.07;;;;;;;3.05;49.75;99716.56;4865169;28;104641;-74
2021/03/20 10:44:22;;;;;;;2.90;2.03;;;;;;;4.09;48.29;99694.44;4865126;28;104239;-76
2021/03/20 10:47:00;;;;;;;2.53;2.10;;;;;;;3.92;46.56;99713.22;4861281;28;103465;-74
2021/03/20 10:49:28;;;;;;;2.43;1.97;;;;;;;4.19;45.98;99705.44;4868982;28;104758;-76
2021/03/20 10:51:57;;;;;;;3.07;2.17;;;;;;;3.96;47.77;99699.16;4868440;28;103952;-76
2021/03/20 10:54:31;;;;;;;4.20;2.20;;;;;;;4.48;46.21;99697.56;4868215;28;102702;-76
2021/03/20 10:57:04;;;;;;;3.23;1.90;;;;;;;4.47;45.47;99690.59;4884118;28;103029;-77
2021/03/20 10:59:34;;;;;;;4.93;2.10;;;;;;;4.01;48.23;99696.41;4867761;28;105366;-75
2021/03/20 11:02:24;;;;;;;3.00;1.93;;;;;;;4.03;47.87;99685.00;4866224;28;103923;-75
2021/03/20 11:04:54;;;;;;;2.30;2.10;;;;;;;5.31;44.52;99691.22;4865322;28;102685;-76
2021/03/20 11:07:23;;;;;;;2.70;2.10;;;;;;;5.04;45.95;99688.66;4863048;28;104624;-75
2021/03/20 11:10:08;;;;;;;2.10;1.90;;;;;;;6.27;43.94;99687.59;4870647;28;104891;-73
2021/03/20 11:12:35;;;;;;;3.47;1.93;;;;;;;5.89;45.06;99690.00;4881415;28;103931;-73
2021/03/20 11:15:03;;;;;;;1.97;1.80;;;;;;;6.70;42.87;99680.63;4896987;28;103065;-73
2021/03/20 11:17:33;;;;;;;2.13;1.93;;;;;;;6.27;44.56;99684.97;4885307;28;103032;-73
2021/03/20 11:20:05;;;;;;;2.80;2.00;;;;;;;6.73;44.80;99683.13;4876581;28;105775;-73
2021/03/20 11:22:38;;;;;;;4.70;2.17;;;;;;;7.02;42.82;99681.91;4884919;28;103770;-74
2021/03/20 11:25:11;;;;;;;4.23;2.30;;;;;;;6.80;44.39;99689.81;4898199;28;103399;-74
2021/03/20 11:27:40;;;;;;;2.47;2.20;;;;;;;6.26;42.30;99685.88;4884957;28;103090;-73
2021/03/20 11:30:14;;;;;;;3.87;2.60;;;;;;;6.56;46.37;99683.81;4880473;28;103196;-73
2021/03/20 11:32:44;;;;;;;2.83;2.50;;;;;;;5.90;47.86;99682.06;4882468;28;103643;-73
2021/03/20 11:35:23;;;;;;;4.70;2.73;;;;;;;4.81;49.77;99688.59;4885095;28;103011;-73
2021/03/20 11:37:51;;;;;;;2.87;2.30;;;;;;;5.08;48.40;99679.78;4885924;28;104368;-74
2021/03/20 11:40:25;;;;;;;2.70;2.50;;;;;;;4.67;47.69;99682.97;4887105;28;110679;-88
2021/03/20 11:42:54;;;;;;;2.57;2.37;;;;;;;4.03;46.57;99682.38;4885367;28;104315;-72
2021/03/20 11:45:26;;;;;;;2.80;2.30;;;;;;;3.82;49.39;99680.41;4896472;28;103526;-70
2021/03/20 11:47:56;;;;;;;2.47;2.23;;;;;;;3.58;48.88;99681.13;4887816;28;103268;-71
2021/03/20 11:50:27;;;;;;;4.10;2.73;;;;;;;5.20;45.81;99683.75;4880893;28;104873;-71
2021/03/20 11:52:57;;;;;;;2.50;2.30;;;;;;;6.11;45.25;99668.13;4887076;28;103579;-71
2021/03/20 11:55:34;;;;;;;3.53;2.50;;;;;;;6.19;44.11;99663.44;4886923;28;103321;-69
2021/03/20 11:58:05;;;;;;;2.37;2.10;;;;;;;7.46;43.67;99662.44;4886923;28;103817;-75
2021/03/20 12:00:40;;;;;;;2.97;2.50;;;;;;;5.88;43.87;99652.41;4887055;28;104883;-76
2021/03/20 12:03:25;;;;;;;2.90;2.60;;;;;;;6.50;45.13;99656.94;4875523;28;103339;-73
2021/03/20 12:06:12;;;;;;;3.03;2.33;;;;;;;5.23;44.14;99653.06;4885213;28;103028;-74
2021/03/20 12:08:42;;;;;;;1.97;1.83;;;;;;;5.95;45.05;99655.66;4880624;28;102692;-74
2021/03/20 12:11:12;;;;;;;2.73;2.53;;;;;;;5.37;42.70;99656.94;4879307;28;104657;-74
2021/03/20 12:13:43;;;;;;;2.50;2.23;;;;;;;6.28;43.89;99655.19;4888521;28;105306;-74
2021/03/20 12:16:35;;;;;;;4.03;2.37;;;;;;;6.87;43.71;99649.25;4887025;28;103055;-75
2021/03/20 12:19:08;;;;;;;3.20;2.50;;;;;;;6.16;41.79;99663.56;4887084;28;103362;-74
2021/03/20 12:21:51;;;;;;;2.57;2.37;;;;;;;5.97;41.66;99653.84;4887067;28;103867;-74
2021/03/20 12:24:21;;;;;;;3.43;3.13;;;;;;;6.63;40.62;99651.13;4887513;28;105175;-76
2021/03/20 12:26:49;;;;;;;4.33;2.43;;;;;;;6.50;42.26;99647.31;4887814;28;103166;-75
2021/03/20 12:29:31;;;;;;;4.30;2.73;;;;;;;5.44;45.43;99646.19;4887093;28;103039;-74
2021/03/20 12:32:24;;;;;;;4.50;2.40;;;;;;;5.39;45.42;99652.53;4869365;28;105582;-77
2021/03/20 12:34:52;;;;;;;4.83;2.67;;;;;;;5.28;46.33;99648.50;4883904;28;104974;-76
2021/03/20 12:37:22;;;;;;;2.87;2.53;;;;;;;4.73;45.89;99640.00;4889312;28;102979;-78
2021/03/20 12:39:50;;;;;;;2.23;2.07;;;;;;;5.75;44.54;99640.66;4885887;28;102947;-77
2021/03/20 12:42:18;;;;;;;3.13;2.83;;;;;;;6.07;43.57;99635.03;4891534;28;108671;-78
2021/03/20 12:44:48;;;;;;;2.90;2.57;;;;;;;6.72;43.80;99621.88;4888450;28;103593;-79
2021/03/20 12:47:18;;;;;;;2.60;2.40;;;;;;;7.95;42.97;99629.47;4888357;28;103127;-80
2021/03/20 12:49:46;;;;;;;2.47;2.27;;;;;;;6.39;42.64;99634.63;4888799;28;103477;-78
2021/03/20 12:52:16;;;;;;;2.60;2.40;;;;;;;6.79;42.70;99620.66;4886254;28;103935;-77
2021/03/20 12:54:46;;;;;;;3.00;2.70;;;;;;;6.67;43.32;99622.97;4886546;28;103334;-79
2021/03/20 12:57:21;;;;;;;3.37;2.27;;;;;;;4.94;43.59;99624.41;4885140;28;103059;-75
2021/03/20 12:59:48;;;;;;;3.43;2.53;;;;;;;4.43;44.30;99616.59;4877487;28;104250;-73
2021/03/20 13:02:16;;;;;;;2.80;2.60;;;;;;;4.53;45.62;99622.34;4883887;28;112023;-73
2021/03/20 13:04:45;;;;;;;5.63;2.40;;;;;;;4.21;46.34;99626.00;4884434;28;104370;-72